Time;durP1;ratioP1;P1;durP2;ratioP2;P2;SDS_P1;SDS_P2;PMS_P1;PMS_P2;Temp;Humidity;BMP_temperature;BMP_pressure;BME280_temperature;BME280_humidity;BME280_pressure;Samples;Min_cycle;Max_cycle;Signal;HPM_P1;HPM_P2
2022/06/06 00:00:21;;;;;;;37.83;18.48;;;;;;;15.36;86.79;101464.00;6267931;22;20097;-58
2022/06/06 00:02:48;;;;;;;37.63;18.05;;;;;;;15.31;86.86;101473.94;6269352;22;20003;-59
2022/06/06 00:05:14;;;;;;;34.08;18.00;;;;;;;15.29;87.15;101460.75;6267803;22;20003;-57
2022/06/06 00:07:39;;;;;;;36.60;18.33;;;;;;;15.31;86.69;101458.03;6266533;22;20007;-57
2022/06/06 00:10:05;;;;;;;34.45;18.13;;;;;;;15.34;86.73;101447.28;6267063;22;20008;-59
2022/06/06 00:12:31;;;;;;;35.13;16.83;;;;;;;15.38;86.34;101443.53;6268455;22;20059;-56
2022/06/06 00:14:58;;;;;;;31.73;15.35;;;;;;;15.30;86.83;101440.38;6269275;22;20003;-59
2022/06/06 00:17:23;;;;;;;33.35;16.23;;;;;;;15.35;86.52;101456.09;6267772;22;20305;-57
2022/06/06 00:19:49;;;;;;;34.17;16.77;;;;;;;15.33;86.47;101450.88;6267285;22;20017;-58
2022/06/06 00:22:14;;;;;;;40.83;18.08;;;;;;;15.39;86.27;101434.63;6267930;22;20022;-59
2022/06/06 00:24:39;;;;;;;31.20;17.48;;;;;;;15.41;85.96;101438.09;6268655;22;20014;-57
2022/06/06 00:27:05;;;;;;;34.97;17.25;;;;;;;15.40;85.95;101436.38;6265056;22;20000;-60
2022/06/06 00:29:34;;;;;;;33.00;16.95;;;;;;;15.39;86.23;101436.44;6268090;22;20023;-57
2022/06/06 00:34:49;;;;;;;29.90;15.88;;;;;;;15.43;85.71;101440.69;6268705;22;20015;-59
2022/06/06 00:37:20;;;;;;;28.90;15.05;;;;;;;15.37;85.89;101431.19;6265835;22;19999;-59
2022/06/06 00:39:46;;;;;;;32.55;15.35;;;;;;;15.44;85.49;101444.22;6266438;22;20344;-58
2022/06/06 00:42:29;;;;;;;33.75;16.58;;;;;;;15.37;85.69;101425.91;6264705;22;19999;-58
2022/06/06 00:45:21;;;;;;;33.55;17.15;;;;;;;15.36;86.02;101429.50;6267952;22;20031;-59
2022/06/06 00:47:50;;;;;;;36.92;17.52;;;;;;;15.31;86.19;101436.78;6266566;22;20512;-60
2022/06/06 00:50:19;;;;;;;39.28;18.63;;;;;;;15.30;86.45;101429.75;6267166;22;20008;-59
2022/06/06 00:52:45;;;;;;;38.58;18.70;;;;;;;15.36;86.33;101418.88;6267312;22;20003;-60
2022/06/06 00:55:16;;;;;;;34.95;16.88;;;;;;;15.39;86.26;101418.69;6269989;22;20003;-60
2022/06/06 00:57:46;;;;;;;35.67;17.05;;;;;;;15.33;86.14;101420.78;6242885;22;20678;-60
2022/06/06 01:00:14;;;;;;;36.90;18.65;;;;;;;15.42;85.71;101417.72;6241301;22;20087;-60
2022/06/06 01:02:40;;;;;;;36.83;18.80;;;;;;;15.44;85.79;101409.69;6269441;22;20003;-59
2022/06/06 01:05:06;;;;;;;34.60;16.88;;;;;;;15.45;85.48;101409.63;6243090;22;20014;-59
2022/06/06 01:07:33;;;;;;;36.85;17.20;;;;;;;15.53;85.38;101409.25;6241422;22;20115;-62
2022/06/06 01:09:58;;;;;;;32.53;17.75;;;;;;;15.55;85.19;101412.69;6271291;22;20424;-60
2022/06/06 01:12:23;;;;;;;40.38;18.88;;;;;;;15.57;84.95;101404.66;6268726;22;20007;-60
2022/06/06 01:14:58;;;;;;;38.35;19.05;;;;;;;15.50;85.17;101396.97;6243271;22;20650;-59
2022/06/06 01:17:42;;;;;;;40.47;18.75;;;;;;;15.49;85.26;101405.00;6242516;22;20029;-60
2022/06/06 01:20:20;;;;;;;34.83;18.00;;;;;;;15.52;85.32;101403.09;6241460;22;20033;-60
2022/06/06 01:23:10;;;;;;;42.87;19.30;;;;;;;15.58;84.95;101393.09;6242236;22;20038;-59
2022/06/06 01:26:14;;;;;;;49.05;20.15;;;;;;;15.46;85.54;101391.88;6270938;22;20064;-59
2022/06/06 01:28:48;;;;;;;42.25;20.40;;;;;;;15.52;85.58;101388.94;6242975;22;20361;-60
2022/06/06 01:31:55;;;;;;;40.00;19.50;;;;;;;15.57;85.37;101394.03;6241980;22;20035;-60
2022/06/06 01:34:33;;;;;;;38.63;20.90;;;;;;;15.43;85.34;101389.34;6201519;22;20018;-60
2022/06/06 01:36:58;;;;;;;43.47;19.35;;;;;;;15.44;85.27;101394.59;6271099;22;20008;-60
2022/06/06 01:39:26;;;;;;;41.55;20.05;;;;;;;15.49;85.14;101392.59;6269634;22;20057;-59
2022/06/06 01:41:51;;;;;;;31.75;17.45;;;;;;;15.53;84.95;101394.19;6241839;22;20004;-60
2022/06/06 01:44:20;;;;;;;37.70;18.58;;;;;;;15.56;84.89;101387.03;6268851;22;20010;-59
2022/06/06 01:46:45;;;;;;;39.47;18.95;;;;;;;15.50;84.66;101389.00;6269610;22;20080;-60
2022/06/06 01:49:12;;;;;;;37.53;18.35;;;;;;;15.55;84.86;101383.50;6240202;22;20082;-59
2022/06/06 01:51:37;;;;;;;35.55;19.00;;;;;;;15.54;84.62;101387.09;6241345;22;20007;-59
2022/06/06 01:54:03;;;;;;;38.88;18.95;;;;;;;15.62;84.41;101384.09;6267922;22;20000;-59
2022/06/06 01:56:33;;;;;;;33.58;17.48;;;;;;;15.67;83.99;101382.06;6269801;22;20069;-62
2022/06/06 01:58:58;;;;;;;40.00;19.02;;;;;;;15.58;84.38;101391.31;6243324;22;19999;-60
2022/06/06 02:01:23;;;;;;;44.60;19.98;;;;;;;15.59;84.44;101389.53;6268297;22;20022;-60
2022/06/06 02:03:49;;;;;;;38.88;19.20;;;;;;;15.66;84.08;101377.69;6268977;22;20007;-58
2022/06/06 02:06:14;;;;;;;45.67;19.27;;;;;;;15.69;83.84;101377.53;6269139;22;20496;-59
2022/06/06 02:08:40;;;;;;;31.25;18.40;;;;;;;15.51;84.02;101376.59;6269231;22;20008;-61
2022/06/06 02:11:05;;;;;;;36.60;18.73;;;;;;;15.61;83.94;101375.25;6269291;22;20019;-60
2022/06/06 02:13:31;;;;;;;34.22;18.73;;;;;;;15.64;83.80;101377.75;6269565;22;19999;-60
2022/06/06 02:15:57;;;;;;;36.65;19.08;;;;;;;15.59;83.73;101370.94;6268687;22;20011;-60
2022/06/06 02:18:22;;;;;;;34.28;17.70;;;;;;;15.64;84.11;101368.91;6269599;22;20008;-59
2022/06/06 02:20:48;;;;;;;36.95;17.45;;;;;;;15.66;83.72;101373.22;6267764;22;20004;-59
2022/06/06 02:23:14;;;;;;;31.52;17.05;;;;;;;15.62;83.70;101371.66;6268558;22;20000;-59
2022/06/06 02:25:39;;;;;;;34.70;16.80;;;;;;;15.52;83.93;101379.19;6268974;22;20137;-58
2022/06/06 02:28:05;;;;;;;32.65;15.95;;;;;;;15.63;83.45;101378.66;6269665;22;20040;-59
2022/06/06 02:30:33;;;;;;;31.10;15.63;;;;;;;15.71;83.08;101377.47;6269079;22;20088;-61
2022/06/06 02:32:59;;;;;;;30.35;15.90;;;;;;;15.61;83.48;101379.69;6270052;22;20008;-61
2022/06/06 02:35:33;;;;;;;32.80;16.60;;;;;;;15.61;83.60;101372.59;6269933;22;20074;-61
2022/06/06 02:37:58;;;;;;;35.55;17.05;;;;;;;15.71;83.24;101369.50;6270065;22;20004;-59
2022/06/06 02:40:25;;;;;;;30.67;16.60;;;;;;;15.71;83.28;101373.00;6268617;22;20014;-59
2022/06/06 02:42:50;;;;;;;33.92;17.00;;;;;;;15.68;83.23;101375.81;6267803;22;20007;-60
2022/06/06 02:45:16;;;;;;;37.08;18.33;;;;;;;15.68;83.58;101377.63;6267862;22;19999;-60
2022/06/06 02:47:48;;;;;;;30.65;17.45;;;;;;;15.72;83.43;101371.22;6268832;22;20004;-59
2022/06/06 02:50:16;;;;;;;36.42;18.42;;;;;;;15.81;83.19;101375.22;6267454;22;20057;-61
2022/06/06 02:52:43;;;;;;;40.05;18.88;;;;;;;15.73;83.72;101365.84;6270043;22;20007;-60
2022/06/06 02:55:09;;;;;;;39.10;19.52;;;;;;;15.59;84.09;101355.00;6268341;22;20328;-59
2022/06/06 02:57:39;;;;;;;40.53;19.25;;;;;;;15.64;83.49;101343.22;6268651;22;20428;-59
2022/06/06 03:00:07;;;;;;;40.00;18.10;;;;;;;15.56;83.91;101348.03;6268278;22;20331;-59
2022/06/06 03:02:33;;;;;;;41.58;19.67;;;;;;;15.41;84.49;101344.28;6269541;22;20008;-59
2022/06/06 03:04:59;;;;;;;42.97;19.30;;;;;;;15.46;84.10;101357.34;6268951;22;20509;-60
2022/06/06 03:07:29;;;;;;;39.70;18.35;;;;;;;15.34;84.67;101358.78;6241761;22;20011;-60
2022/06/06 03:10:02;;;;;;;37.00;18.02;;;;;;;15.32;85.11;101369.47;6241460;22;20011;-60
2022/06/06 03:12:53;;;;;;;38.92;19.90;;;;;;;15.38;85.02;101371.84;6269335;22;20095;-60
2022/06/06 03:20:46;;;;;;;39.45;18.75;;;;;;;15.44;85.02;101368.03;6241911;22;20003;-61
2022/06/06 03:21:45;;;;;;;36.20;17.45;;;;;;;15.58;84.22;101362.09;6269823;22;20014;-60
2022/06/06 03:24:26;;;;;;;42.47;19.45;;;;;;;15.50;85.05;101364.28;6268177;22;20011;-60
2022/06/06 03:27:11;;;;;;;48.33;21.40;;;;;;;15.45;85.01;101353.84;6241379;22;20015;-60
2022/06/06 03:30:04;;;;;;;41.42;19.90;;;;;;;15.51;84.79;101352.69;6241303;22;20014;-60
2022/06/06 03:32:42;;;;;;;46.03;20.17;;;;;;;15.49;85.02;101350.13;6217234;22;20451;-61
2022/06/06 03:35:14;;;;;;;46.53;21.73;;;;;;;15.43;85.46;101360.16;6268919;22;20008;-63
2022/06/06 03:38:16;;;;;;;45.80;20.92;;;;;;;15.52;85.29;101365.91;6269305;22;20003;-63
2022/06/06 03:40:50;;;;;;;40.75;21.08;;;;;;;15.55;85.20;101362.25;6266682;22;20099;-61
2022/06/06 03:43:26;;;;;;;44.75;20.02;;;;;;;15.62;84.89;101361.00;6267992;22;20014;-61
2022/06/06 03:46:02;;;;;;;49.10;22.83;;;;;;;15.52;85.23;101359.72;6239855;22;20400;-61
2022/06/06 03:48:56;;;;;;;47.58;21.88;;;;;;;15.69;84.98;101361.59;6268018;22;20108;-59
2022/06/06 03:51:25;;;;;;;48.13;22.13;;;;;;;15.64;84.93;101356.50;6257429;22;20094;-60
2022/06/06 03:53:55;;;;;;;54.33;24.33;;;;;;;15.65;84.83;101360.88;6268779;22;20004;-61
2022/06/06 03:56:21;;;;;;;48.40;22.52;;;;;;;15.62;84.94;101361.00;6267951;22;20004;-61
2022/06/06 03:58:47;;;;;;;56.45;24.52;;;;;;;15.70;85.09;101367.75;6267976;22;20390;-61
2022/06/06 04:01:14;;;;;;;54.55;25.15;;;;;;;15.69;85.31;101360.72;6268483;22;20008;-60
2022/06/06 04:03:41;;;;;;;56.03;23.88;;;;;;;15.81;84.96;101360.16;6241904;22;20007;-62
2022/06/06 04:06:06;;;;;;;44.97;22.85;;;;;;;15.81;84.85;101362.81;6240954;22;20004;-59
2022/06/06 04:08:32;;;;;;;46.15;23.00;;;;;;;15.82;84.67;101359.22;6242292;22;20061;-62
2022/06/06 04:11:15;;;;;;;47.33;20.83;;;;;;;15.81;84.64;101364.59;6268356;22;20420;-60
2022/06/06 04:13:56;;;;;;;42.28;18.17;;;;;;;15.73;84.34;101368.50;6268023;22;20000;-60
2022/06/06 04:16:50;;;;;;;32.45;16.70;;;;;;;15.64;84.32;101361.81;6268850;22;20329;-59
2022/06/06 04:19:16;;;;;;;32.05;15.88;;;;;;;15.81;83.90;101364.59;6241097;22;20043;-61
2022/06/06 04:21:47;;;;;;;33.92;15.43;;;;;;;15.73;83.92;101364.97;6269413;22;20090;-59
2022/06/06 04:24:56;;;;;;;30.58;14.90;;;;;;;15.94;83.10;101365.75;6267295;22;20408;-61
2022/06/06 04:27:41;;;;;;;23.13;11.85;;;;;;;15.96;82.34;101377.19;6240981;22;20019;-57
2022/06/06 04:30:15;;;;;;;28.17;12.13;;;;;;;16.06;82.18;101366.09;6243268;22;20228;-59
2022/06/06 04:32:44;;;;;;;25.63;11.10;;;;;;;15.85;81.55;101387.44;6271464;22;20137;-60
2022/06/06 04:35:20;;;;;;;18.38;9.48;;;;;;;15.87;81.24;101370.47;6269284;22;20012;-60
2022/06/06 04:38:03;;;;;;;17.35;9.18;;;;;;;15.92;80.99;101372.91;6244218;22;20224;-61
2022/06/06 04:40:54;;;;;;;16.83;10.10;;;;;;;15.84;80.91;101367.13;6269979;22;20004;-60
2022/06/06 04:43:41;;;;;;;15.48;7.90;;;;;;;15.76;80.70;101378.97;6243500;22;20004;-58
2022/06/06 04:46:17;;;;;;;17.73;8.05;;;;;;;15.81;80.56;101381.41;6242615;22;20329;-60
2022/06/06 04:48:43;;;;;;;20.30;8.38;;;;;;;15.82;80.29;101384.91;6271016;22;20003;-63
2022/06/06 04:51:09;;;;;;;21.60;7.70;;;;;;;15.95;80.32;101380.75;6270227;22;20010;-60
2022/06/06 04:53:39;;;;;;;15.18;8.48;;;;;;;15.86;80.13;101387.34;6243451;22;20031;-59
2022/06/06 04:56:04;;;;;;;;;;;;;;;15.89;79.60;101383.69;6242484;22;20007;-60
2022/06/06 04:58:32;;;;;;;16.63;5.85;;;;;;;15.91;79.08;101382.69;6243819;22;19953;-60
2022/06/06 05:00:58;;;;;;;16.98;6.47;;;;;;;15.86;78.93;101384.69;6269826;22;20011;-60
2022/06/06 05:03:23;;;;;;;12.10;5.50;;;;;;;15.86;79.32;101379.38;6270050;22;20087;-60
2022/06/06 05:06:19;;;;;;;12.90;5.53;;;;;;;15.96;79.11;101371.88;6267627;22;20078;-61
2022/06/06 05:09:22;;;;;;;11.90;5.50;;;;;;;15.82;78.52;101374.28;6269283;22;20340;-58
2022/06/06 05:12:25;;;;;;;11.80;4.35;;;;;;;15.86;78.67;101379.38;6242444;22;20061;-60
2022/06/06 05:14:56;;;;;;;12.40;3.97;;;;;;;15.95;78.15;101377.25;6269793;22;20086;-62
2022/06/06 05:17:30;;;;;;;12.88;4.25;;;;;;;16.05;77.81;101381.22;6270281;22;20012;-61
2022/06/06 05:20:04;;;;;;;7.72;3.45;;;;;;;16.02;77.80;101379.53;6269091;22;20090;-62
2022/06/06 05:22:50;;;;;;;15.45;3.70;;;;;;;15.90;77.70;101369.47;6270470;22;20079;-60
2022/06/06 05:25:48;;;;;;;7.05;3.25;;;;;;;15.91;77.40;101365.88;6268882;22;20008;-60
2022/06/06 05:28:32;;;;;;;11.45;3.55;;;;;;;15.76;77.52;101360.38;6269666;22;20415;-59
2022/06/06 05:31:40;;;;;;;7.70;3.33;;;;;;;15.74;78.11;101366.69;6270791;22;20010;-59
2022/06/06 05:34:12;;;;;;;7.50;3.10;;;;;;;15.80;77.33;101369.03;6268888;22;20014;-60
2022/06/06 05:36:52;;;;;;;8.35;2.83;;;;;;;16.00;76.05;101370.78;6242540;22;20007;-61
2022/06/06 05:39:48;;;;;;;8.82;3.50;;;;;;;16.19;75.68;101374.34;6269595;22;20335;-59
2022/06/06 05:42:14;;;;;;;10.20;2.83;;;;;;;16.32;74.04;101375.47;6268388;22;20008;-59
2022/06/06 05:45:02;;;;;;;8.02;3.42;;;;;;;16.39;73.96;101376.88;6269835;22;20064;-60
2022/06/06 05:47:34;;;;;;;9.75;2.30;;;;;;;16.30;73.53;101374.66;6243170;22;20048;-60
2022/06/06 05:50:34;;;;;;;4.10;2.30;;;;;;;16.16;73.42;101376.22;6270157;22;20011;-57
2022/06/06 05:53:31;;;;;;;8.23;2.33;;;;;;;16.31;73.42;101384.38;6176432;23;20242;-59
2022/06/06 05:56:12;;;;;;;8.93;2.65;;;;;;;16.37;73.19;101384.06;6269755;22;20008;-61
2022/06/06 05:58:47;;;;;;;8.63;2.35;;;;;;;16.58;72.63;101375.09;6269088;22;20010;-62
2022/06/06 06:01:16;;;;;;;10.32;2.95;;;;;;;16.61;72.37;101380.22;6241396;22;20432;-59
2022/06/06 06:03:50;;;;;;;10.13;2.20;;;;;;;16.46;72.02;101389.88;6240692;22;20351;-60
2022/06/06 06:06:53;;;;;;;6.65;1.95;;;;;;;16.45;71.86;101374.84;6265197;22;20451;-59
2022/06/06 06:09:59;;;;;;;3.63;2.50;;;;;;;16.66;71.39;101384.41;6267641;22;20066;-59
2022/06/06 06:12:31;;;;;;;6.68;1.88;;;;;;;16.44;71.72;101373.13;6141746;22;20039;-59
2022/06/06 06:15:23;;;;;;;11.80;2.45;;;;;;;16.61;70.87;101386.41;6269895;22;20647;-58
2022/06/06 06:17:49;;;;;;;5.38;2.03;;;;;;;16.76;70.52;101371.47;6269120;22;20337;-60
2022/06/06 06:20:18;;;;;;;5.75;2.00;;;;;;;16.86;70.71;101382.50;6241898;22;20475;-60
2022/06/06 06:22:51;;;;;;;7.03;1.77;;;;;;;17.11;70.20;101388.38;6241476;22;20007;-59
2022/06/06 06:25:19;;;;;;;5.60;2.17;;;;;;;17.16;69.90;101384.50;6241602;22;20238;-59
2022/06/06 06:27:45;;;;;;;10.05;2.15;;;;;;;17.00;69.34;101391.56;6268769;22;20077;-59
2022/06/06 06:30:11;;;;;;;4.82;1.90;;;;;;;16.91;69.94;101392.91;6269697;22;20078;-60
2022/06/06 06:33:04;;;;;;;9.05;1.98;;;;;;;16.91;70.41;101399.09;6268409;22;20387;-59
2022/06/06 06:35:51;;;;;;;9.30;2.42;;;;;;;16.97;70.56;101399.69;6243317;22;20004;-61
2022/06/06 06:38:19;;;;;;;7.72;2.58;;;;;;;17.17;70.82;101410.22;6267276;22;20004;-60
2022/06/06 06:41:05;;;;;;;7.80;2.65;;;;;;;17.34;70.53;101402.28;6268248;22;20098;-59
2022/06/06 06:43:46;;;;;;;10.02;2.53;;;;;;;17.38;69.85;101399.38;6241127;22;20477;-54
2022/06/06 06:46:18;;;;;;;5.47;2.10;;;;;;;17.29;69.09;101386.53;6242083;22;20004;-55
2022/06/06 06:48:45;;;;;;;10.23;2.28;;;;;;;17.15;69.68;101411.22;6268490;22;20004;-57
2022/06/06 06:51:32;;;;;;;6.88;2.55;;;;;;;17.21;69.71;101402.91;6268047;22;20425;-60
2022/06/06 06:54:06;;;;;;;7.78;2.38;;;;;;;17.27;70.21;101397.25;6242226;22;20027;-62
2022/06/06 06:57:10;;;;;;;9.45;3.33;;;;;;;17.29;70.54;101399.84;6268610;22;20095;-60
2022/06/06 06:59:50;;;;;;;7.20;2.55;;;;;;;17.23;70.96;101413.50;6166948;22;20027;-61
2022/06/06 07:08:59;;;;;;;5.47;1.70;;;;;;;17.27;69.83;101409.72;6268582;22;20050;-61
2022/06/06 07:11:30;;;;;;;6.45;2.00;;;;;;;17.19;68.96;101407.47;6241149;22;20018;-61
2022/06/06 07:14:12;;;;;;;4.15;1.80;;;;;;;17.18;67.78;101411.94;6268132;22;20004;-59
2022/06/06 07:16:39;;;;;;;4.53;1.45;;;;;;;17.32;66.78;101407.69;6268855;22;20003;-58
2022/06/06 07:19:10;;;;;;;9.25;1.73;;;;;;;17.29;67.25;101414.03;6240939;22;20039;-60
2022/06/06 07:21:37;;;;;;;11.68;1.75;;;;;;;17.26;67.01;101410.66;6269151;22;20042;-59
2022/06/06 07:24:06;;;;;;;9.40;1.60;;;;;;;17.10;66.74;101419.44;6267492;22;20003;-60
2022/06/06 07:26:37;;;;;;;6.10;1.38;;;;;;;16.84;66.65;101405.69;6268074;22;20082;-59
2022/06/06 07:29:05;;;;;;;8.23;1.20;;;;;;;16.75;66.89;101420.31;6267911;22;20000;-61
2022/06/06 07:32:02;;;;;;;5.43;1.48;;;;;;;16.86;67.07;101401.13;6269565;22;20023;-59
2022/06/06 07:34:50;;;;;;;5.53;1.17;;;;;;;16.90;66.72;101410.69;6241419;22;20003;-60
2022/06/06 07:37:22;;;;;;;6.10;1.37;;;;;;;16.99;66.03;101413.81;6241823;22;20010;-59
2022/06/06 07:39:54;;;;;;;4.80;1.42;;;;;;;17.21;66.74;101426.88;6267964;22;20285;-61
2022/06/06 07:42:25;;;;;;;9.55;1.58;;;;;;;17.62;64.76;101414.97;6268103;22;20090;-60
2022/06/06 07:45:09;;;;;;;8.63;1.27;;;;;;;17.90;63.96;101408.09;6266196;22;20391;-62
2022/06/06 07:47:57;;;;;;;4.68;1.45;;;;;;;17.94;64.42;101414.97;6268047;22;20053;-59
2022/06/06 07:50:45;;;;;;;7.72;2.00;;;;;;;17.90;65.72;101418.75;6264602;22;20029;-61
2022/06/06 07:54:04;;;;;;;6.95;1.98;;;;;;;17.93;67.18;101409.72;6220851;22;20928;-60
2022/06/06 07:56:39;;;;;;;7.82;2.17;;;;;;;17.96;67.91;101404.22;6118805;23;20009;-60
2022/06/06 07:59:24;;;;;;;8.10;2.00;;;;;;;18.19;67.02;101423.41;6210761;22;20082;-60
2022/06/06 08:02:03;;;;;;;6.68;1.60;;;;;;;18.58;65.09;101407.84;6214132;22;20586;-59
2022/06/06 08:04:38;;;;;;;8.20;2.03;;;;;;;18.35;65.37;101415.38;6244001;22;20080;-60
2022/06/06 08:07:25;;;;;;;5.47;2.10;;;;;;;18.09;67.28;101417.69;6214390;22;20444;-60
2022/06/06 08:10:22;;;;;;;8.25;2.60;;;;;;;17.52;70.90;101419.91;6244212;22;20011;-61
2022/06/06 08:12:57;;;;;;;6.90;2.60;;;;;;;17.27;71.79;101431.88;6219017;22;20436;-58
2022/06/06 08:15:27;;;;;;;9.30;2.88;;;;;;;17.26;72.52;101419.53;6244062;22;20450;-60
2022/06/06 08:18:22;;;;;;;6.93;2.72;;;;;;;17.46;72.59;101419.41;6243590;22;20428;-60
2022/06/06 08:20:58;;;;;;;7.00;2.65;;;;;;;17.36;72.02;101424.34;6216054;22;20082;-60
2022/06/06 08:23:25;;;;;;;9.55;2.55;;;;;;;17.54;72.28;101422.50;6215873;22;20003;-60
2022/06/06 08:25:51;;;;;;;10.57;2.80;;;;;;;17.73;71.15;101429.50;6242017;22;20004;-62
2022/06/06 08:28:17;;;;;;;8.18;2.10;;;;;;;17.96;70.12;101417.53;6216219;22;20443;-60
2022/06/06 08:30:44;;;;;;;6.63;1.98;;;;;;;18.23;69.69;101426.75;6242846;22;20000;-61
2022/06/06 08:33:10;;;;;;;6.32;2.00;;;;;;;18.33;67.89;101413.78;6215731;22;20008;-61
2022/06/06 08:35:46;;;;;;;5.35;1.67;;;;;;;18.22;67.11;101423.25;6242783;22;20443;-63
2022/06/06 08:38:22;;;;;;;6.20;1.83;;;;;;;18.14;67.10;101423.69;6241581;22;20010;-59
2022/06/06 08:41:04;;;;;;;7.68;1.83;;;;;;;18.19;67.25;101418.94;6242487;22;20016;-58
2022/06/06 08:43:49;;;;;;;5.13;1.85;;;;;;;18.04;66.30;101403.78;6216897;22;19999;-58
2022/06/06 08:46:21;;;;;;;10.48;1.77;;;;;;;18.07;65.87;101392.94;6243248;22;20004;-60
2022/06/06 08:52:36;;;;;;;5.82;2.42;;;;;;;16.79;72.70;101415.69;6241166;22;20046;-60
2022/06/06 08:55:37;;;;;;;6.80;1.50;;;;;;;16.13;73.11;101424.22;6241451;22;20451;-55
2022/06/06 08:58:10;;;;;;;3.60;1.58;;;;;;;15.69;74.76;101416.53;6228125;22;20459;-57
2022/06/06 09:01:04;;;;;;;10.50;2.20;;;;;;;15.44;77.56;101410.53;6242466;22;20026;-57
2022/06/06 09:03:48;;;;;;;9.68;2.30;;;;;;;15.13;78.54;101418.09;6214865;22;20007;-55
2022/06/06 09:06:32;;;;;;;6.75;2.00;;;;;;;15.03;79.66;101432.69;6242629;22;20432;-57
2022/06/06 09:09:20;;;;;;;8.63;1.88;;;;;;;14.65;79.54;101433.34;6242266;22;20011;-60
2022/06/06 09:12:16;;;;;;;7.85;1.80;;;;;;;14.47;80.59;101416.41;6242547;22;20008;-56
2022/06/06 09:15:05;;;;;;;8.32;1.80;;;;;;;14.49;80.51;101410.13;6244010;22;20013;-57
2022/06/06 09:17:47;;;;;;;;;;;;;;;14.65;80.81;101418.31;6217645;22;20011;-57
2022/06/06 09:20:41;;;;;;;12.50;2.22;;;;;;;14.85;80.69;101411.34;6217289;22;20794;-58
2022/06/06 09:23:43;;;;;;;3.88;1.98;;;;;;;15.06;79.91;101416.63;6244243;22;20559;-59
2022/06/06 09:26:18;;;;;;;10.63;2.25;;;;;;;15.22;79.22;101410.63;6242931;22;20019;-59
2022/06/06 09:29:04;;;;;;;9.02;2.28;;;;;;;15.45;78.80;101401.66;6245493;22;20416;-58
2022/06/06 09:31:48;;;;;;;5.97;1.92;;;;;;;15.70;78.25;101396.97;6245131;22;20015;-60
2022/06/06 09:34:22;;;;;;;6.88;2.15;;;;;;;15.96;77.69;101405.53;6245154;22;20008;-58
2022/06/06 09:37:12;;;;;;;8.60;2.15;;;;;;;16.16;76.88;101408.13;6244792;22;20004;-58
2022/06/06 09:39:53;;;;;;;6.20;2.10;;;;;;;16.61;76.14;101399.72;6241704;22;20377;-56
2022/06/06 09:42:49;;;;;;;6.68;2.10;;;;;;;17.02;73.32;101410.97;6216780;22;20138;-60
2022/06/06 09:45:30;;;;;;;8.73;2.53;;;;;;;16.98;73.81;101414.75;6244653;22;20003;-53
2022/06/06 09:48:21;;;;;;;7.28;2.10;;;;;;;16.69;74.83;101402.00;6242772;22;19999;-58
2022/06/06 09:51:24;;;;;;;8.15;1.90;;;;;;;16.63;74.74;101402.31;6244788;22;20000;-55
2022/06/06 10:00:17;;;;;;;5.90;1.80;;;;;;;17.64;71.80;101399.72;6245274;22;20510;-56
2022/06/06 10:03:12;;;;;;;8.02;2.40;;;;;;;17.47;72.31;101391.81;6244992;22;20035;-58
2022/06/06 10:05:59;;;;;;;7.22;2.65;;;;;;;17.39;72.12;101392.22;6244466;22;20012;-59
2022/06/06 10:08:53;;;;;;;8.18;2.33;;;;;;;17.39;73.79;101389.53;6243694;22;20088;-56
2022/06/06 10:11:36;;;;;;;7.57;2.20;;;;;;;17.57;74.16;101390.34;6242606;22;20003;-59
2022/06/06 10:14:25;;;;;;;8.55;2.33;;;;;;;17.91;73.09;101380.47;6244253;22;20069;-58
2022/06/06 10:17:00;;;;;;;;;;;;;;;18.53;71.56;101377.91;6244433;22;20174;-57
2022/06/06 10:19:32;;;;;;;10.45;2.28;;;;;;;18.89;70.50;101373.97;6243729;22;19913;-59
2022/06/06 10:22:22;;;;;;;5.15;1.88;;;;;;;19.22;68.22;101373.81;6244045;22;20380;-57
2022/06/06 10:25:13;;;;;;;6.57;3.88;;;;;;;19.28;68.43;101379.66;6243525;22;20050;-59
2022/06/06 10:28:00;;;;;;;5.53;2.20;;;;;;;19.32;68.39;101373.16;6194272;22;20821;-59
2022/06/06 10:30:37;;;;;;;10.95;2.53;;;;;;;18.96;68.10;101373.63;6259657;22;20312;-60
2022/06/06 10:33:08;;;;;;;7.63;2.28;;;;;;;18.82;68.38;101369.97;6242320;22;20023;-59
2022/06/06 10:35:53;;;;;;;7.68;2.50;;;;;;;18.50;69.98;101362.94;6269738;22;20097;-59
2022/06/06 10:38:26;;;;;;;6.43;2.45;;;;;;;18.22;70.66;101374.38;6268009;22;20429;-60
2022/06/06 10:41:13;;;;;;;6.63;2.83;;;;;;;17.92;71.89;101368.88;6239390;22;20491;-59
2022/06/06 10:43:46;;;;;;;8.10;2.90;;;;;;;17.61;73.87;101370.59;6267727;22;20004;-59
2022/06/06 10:46:11;;;;;;;8.05;2.70;;;;;;;17.70;74.01;101385.19;6241775;22;20090;-60
2022/06/06 10:48:55;;;;;;;8.55;2.83;;;;;;;17.69;74.60;101378.16;6269447;22;20034;-59
2022/06/06 10:51:47;;;;;;;8.27;2.80;;;;;;;17.43;73.88;101383.97;6268480;22;20058;-58
2022/06/06 10:54:49;;;;;;;9.18;2.20;;;;;;;17.77;73.14;101375.06;6267789;22;20008;-60
2022/06/06 10:57:41;;;;;;;7.00;2.15;;;;;;;18.33;71.76;101365.75;6163746;22;20008;-56
2022/06/06 11:00:22;;;;;;;5.88;2.10;;;;;;;18.72;70.31;101371.47;6269408;22;20015;-60
2022/06/06 11:03:00;;;;;;;7.75;2.17;;;;;;;18.59;70.36;101369.53;6242486;22;20050;-59
2022/06/06 11:05:44;;;;;;;5.30;2.17;;;;;;;18.69;69.97;101360.03;6269161;22;20011;-56
2022/06/06 11:08:34;;;;;;;6.57;1.88;;;;;;;18.98;69.09;101366.34;6266476;22;20026;-56
2022/06/06 11:11:26;;;;;;;7.72;2.33;;;;;;;18.86;68.84;101358.16;6261076;22;20650;-59
2022/06/06 11:14:12;;;;;;;5.63;2.50;;;;;;;18.75;68.62;101371.31;6245101;22;20035;-61
2022/06/06 11:17:02;;;;;;;5.35;2.00;;;;;;;18.34;70.72;101365.66;6217676;22;20670;-57
2022/06/06 11:19:41;;;;;;;5.32;2.40;;;;;;;17.88;74.05;101371.81;6245908;22;20103;-64
2022/06/06 11:22:35;;;;;;;6.18;2.05;;;;;;;17.74;72.73;101381.44;6244635;22;20062;-61
2022/06/06 11:25:08;;;;;;;3.95;1.58;;;;;;;17.39;74.41;101377.09;6218083;22;20008;-57
2022/06/06 11:27:52;;;;;;;3.03;1.52;;;;;;;17.29;75.51;101371.44;6242544;22;20008;-60
2022/06/06 11:30:32;;;;;;;6.97;1.88;;;;;;;17.45;74.84;101391.03;6244325;22;20425;-60
2022/06/06 11:33:32;;;;;;;7.10;1.77;;;;;;;17.78;73.66;101372.31;6244867;22;20014;-58
2022/06/06 11:36:42;;;;;;;7.85;2.15;;;;;;;17.85;73.46;101375.47;6217620;22;20011;-58
2022/06/06 11:39:35;;;;;;;5.18;1.95;;;;;;;17.48;75.30;101377.53;6243072;22;20089;-59
2022/06/06 11:42:06;;;;;;;7.32;1.88;;;;;;;17.29;76.38;101370.56;6244025;22;20097;-56
2022/06/06 11:44:48;;;;;;;6.43;2.45;;;;;;;17.51;76.59;101358.72;6245401;22;20379;-63
2022/06/06 11:47:34;;;;;;;5.40;1.88;;;;;;;17.97;75.26;101362.44;6190206;22;20010;-59
2022/06/06 11:50:11;;;;;;;6.40;1.95;;;;;;;18.56;72.23;101351.03;6235983;22;20019;-59
2022/06/06 11:52:55;;;;;;;6.35;2.00;;;;;;;18.56;71.70;101361.72;6267465;22;20031;-59
2022/06/06 11:55:45;;;;;;;4.95;1.95;;;;;;;18.66;71.73;101354.88;6240340;22;20416;-58
2022/06/06 11:58:50;;;;;;;7.80;2.25;;;;;;;18.75;69.85;101365.97;6266246;22;20034;-58
2022/06/06 12:01:36;;;;;;;7.32;1.90;;;;;;;18.24;71.62;101345.81;6173185;23;20009;-57
2022/06/06 12:04:32;;;;;;;5.80;1.98;;;;;;;17.98;72.69;101353.47;6173168;23;20013;-58
2022/06/06 12:07:19;;;;;;;6.38;2.30;;;;;;;17.71;73.62;101354.09;6251013;22;20046;-59
2022/06/06 12:09:51;;;;;;;10.32;2.60;;;;;;;17.40;75.48;101360.16;6268007;22;20010;-57
2022/06/06 12:12:41;;;;;;;6.07;2.47;;;;;;;17.33;76.41;101358.78;6267411;22;20031;-59
2022/06/06 12:15:25;;;;;;;13.45;2.80;;;;;;;17.25;77.49;101361.00;6268387;22;20039;-59
2022/06/06 12:18:06;;;;;;;8.48;2.78;;;;;;;16.76;78.62;101358.16;6268431;22;20014;-58
2022/06/06 12:20:52;;;;;;;8.30;3.15;;;;;;;16.85;79.45;101362.16;6268769;22;20057;-62
2022/06/06 12:23:43;;;;;;;7.57;2.90;;;;;;;16.77;80.49;101353.72;6267501;22;20094;-59
2022/06/06 12:26:27;;;;;;;5.93;2.70;;;;;;;16.63;80.59;101354.41;6239969;22;20010;-56
2022/06/06 12:29:28;;;;;;;5.80;2.45;;;;;;;16.46;81.28;101363.28;6268659;22;20325;-58
2022/06/06 12:32:24;;;;;;;3.20;2.10;;;;;;;16.36;81.98;101366.41;6267257;22;20089;-54